createdAt,value
2019-05-20T00:02:25.868Z,2.10
2019-05-20T00:04:51.210Z,2.02
2019-05-20T00:07:21.489Z,1.92
2019-05-20T00:09:51.718Z,1.90
2019-05-20T00:12:21.971Z,1.80
2019-05-20T00:14:52.211Z,2.08
2019-05-20T00:17:23.528Z,1.90
2019-05-20T00:19:53.792Z,1.92
2019-05-20T00:22:24.068Z,1.95
2019-05-20T00:24:54.303Z,2.15
2019-05-20T00:27:24.634Z,2.17
2019-05-20T00:29:54.941Z,2.27
2019-05-20T00:32:40.282Z,2.25
2019-05-20T00:34:57.221Z,2.20
2019-05-20T00:37:27.492Z,2.08
2019-05-20T00:39:57.723Z,1.98
2019-05-20T00:42:28.242Z,2.20
2019-05-20T00:44:58.469Z,2.33
2019-05-20T00:47:28.733Z,2.00
2019-05-20T00:49:58.953Z,1.92
2019-05-20T00:52:29.221Z,1.98
2019-05-20T00:54:59.464Z,2.33
2019-05-20T00:57:29.739Z,2.12
2019-05-20T00:59:59.967Z,2.25
2019-05-20T01:02:30.231Z,2.30
2019-05-20T01:05:00.466Z,2.15
2019-05-20T01:07:30.737Z,2.83
2019-05-20T01:10:00.966Z,3.22
2019-05-20T01:12:31.309Z,2.60
2019-05-20T01:15:01.549Z,2.35
2019-05-20T01:17:33.374Z,2.52
2019-05-20T01:20:05.211Z,2.58
2019-05-20T01:22:35.944Z,2.67
2019-05-20T01:25:07.820Z,3.12
2019-05-20T01:27:38.075Z,3.00
2019-05-20T01:30:10.313Z,3.08
2019-05-20T01:32:40.568Z,3.15
2019-05-20T01:35:10.796Z,2.60
2019-05-20T01:37:41.057Z,3.02
2019-05-20T01:40:11.299Z,3.58
2019-05-20T01:42:41.568Z,3.60
2019-05-20T01:45:12.863Z,3.33
2019-05-20T01:47:43.135Z,3.77
2019-05-20T01:50:16.619Z,3.05
2019-05-20T01:52:46.882Z,3.50
2019-05-20T01:55:18.182Z,3.90
2019-05-20T01:57:48.446Z,3.70
2019-05-20T02:00:20.322Z,4.42
2019-05-20T02:02:50.585Z,4.33
2019-05-20T02:05:20.827Z,4.08
2019-05-20T02:07:51.092Z,4.00
2019-05-20T02:10:21.323Z,3.92
2019-05-20T02:12:51.599Z,4.17
2019-05-20T02:15:29.289Z,4.45
2019-05-20T02:17:59.586Z,4.42
2019-05-20T02:20:30.977Z,3.40
2019-05-20T02:23:16.992Z,3.65
2019-05-20T02:25:48.844Z,3.47
2019-05-20T02:28:19.179Z,3.72
2019-05-20T02:30:49.418Z,3.83
2019-05-20T02:33:19.664Z,3.22
2019-05-20T02:35:49.888Z,3.92
2019-05-20T02:38:20.161Z,3.22
2019-05-20T02:40:50.388Z,3.08
2019-05-20T02:43:20.720Z,3.60
2019-05-20T02:45:50.949Z,3.20
2019-05-20T02:48:21.220Z,2.90
2019-05-20T02:50:51.447Z,2.90
2019-05-20T02:53:21.703Z,3.50
2019-05-20T02:55:51.942Z,3.10
2019-05-20T02:58:22.219Z,3.33
2019-05-20T03:00:52.450Z,3.83
2019-05-20T03:03:22.714Z,3.25
2019-05-20T03:05:52.950Z,2.98
2019-05-20T03:08:23.217Z,2.80
2019-05-20T03:10:53.451Z,2.95
2019-05-20T03:13:23.733Z,3.12
2019-05-20T03:15:53.975Z,3.47
2019-05-20T03:18:24.231Z,2.87
2019-05-20T03:20:54.459Z,3.05
2019-05-20T03:23:24.728Z,3.15
2019-05-20T03:25:54.984Z,3.15
2019-05-20T03:28:25.263Z,3.05
2019-05-20T03:30:55.497Z,2.90
2019-05-20T03:33:25.834Z,2.90
2019-05-20T03:35:56.105Z,2.80
2019-05-20T03:38:26.411Z,3.00
2019-05-20T03:40:56.708Z,2.98
2019-05-20T03:43:26.972Z,3.10
2019-05-20T03:45:57.213Z,2.77
2019-05-20T03:48:27.474Z,2.85
2019-05-20T03:50:57.711Z,2.75
2019-05-20T03:53:28.927Z,2.42
2019-05-20T03:55:59.185Z,2.90
2019-05-20T03:58:29.414Z,2.65
2019-05-20T04:00:59.669Z,2.85
2019-05-20T04:03:29.903Z,2.90
2019-05-20T04:06:00.168Z,3.00
2019-05-20T04:08:30.498Z,2.90
2019-05-20T04:11:00.863Z,3.30
2019-05-20T04:13:34.551Z,2.55
2019-05-20T04:16:03.157Z,3.40
2019-05-20T04:18:33.389Z,3.15
2019-05-20T04:21:03.833Z,2.40
2019-05-20T04:23:34.079Z,2.50
2019-05-20T04:26:04.325Z,2.87
2019-05-20T04:28:34.599Z,2.83
2019-05-20T04:31:05.042Z,3.60
2019-05-20T04:33:35.256Z,3.02
2019-05-20T04:36:05.558Z,2.80
2019-05-20T04:38:35.799Z,3.05
2019-05-20T04:41:06.043Z,2.90
2019-05-20T04:43:36.285Z,2.83
2019-05-20T04:46:06.553Z,3.47
2019-05-20T04:48:36.797Z,3.50
2019-05-20T04:51:07.047Z,3.70
2019-05-20T04:53:37.278Z,3.55
2019-05-20T04:56:07.570Z,3.30
2019-05-20T04:58:37.890Z,3.15
2019-05-20T05:01:08.168Z,3.17
2019-05-20T05:03:38.404Z,3.27
2019-05-20T05:06:08.665Z,3.77
2019-05-20T05:08:38.902Z,3.83
2019-05-20T05:11:09.366Z,3.70
2019-05-20T05:13:39.685Z,3.37
2019-05-20T05:16:09.952Z,3.55
2019-05-20T05:18:40.252Z,3.10
2019-05-20T05:21:10.521Z,3.27
2019-05-20T05:23:40.756Z,3.92
2019-05-20T05:26:11.012Z,3.25
2019-05-20T05:28:41.329Z,3.58
2019-05-20T05:31:11.580Z,3.40
2019-05-20T05:33:41.845Z,3.22
2019-05-20T05:36:12.102Z,3.47
2019-05-20T05:38:42.346Z,3.90
2019-05-20T05:41:12.590Z,4.12
2019-05-20T05:43:42.842Z,3.87
2019-05-20T05:46:13.172Z,3.40
2019-05-20T05:48:43.413Z,4.55
2019-05-20T05:51:13.676Z,4.35
2019-05-20T05:53:43.910Z,4.17
2019-05-20T05:56:14.187Z,4.10
2019-05-20T05:58:44.742Z,4.00
2019-05-20T06:01:15.500Z,3.20
2019-05-20T06:03:45.839Z,3.80
2019-05-20T06:06:16.085Z,3.60
2019-05-20T06:08:46.402Z,3.10
2019-05-20T06:11:16.712Z,2.83
2019-05-20T06:13:46.970Z,2.55
2019-05-20T06:16:34.977Z,2.47
2019-05-20T06:18:49.146Z,2.27
2019-05-20T06:21:19.401Z,2.10
2019-05-20T06:23:49.634Z,2.60
2019-05-20T06:26:19.880Z,2.42
2019-05-20T06:28:51.276Z,2.75
2019-05-20T06:31:21.531Z,2.45
2019-05-20T06:33:51.763Z,2.45
2019-05-20T06:36:26.958Z,2.42
2019-05-20T06:39:12.895Z,2.40
2019-05-20T06:41:43.157Z,2.33
2019-05-20T06:44:13.393Z,2.27
2019-05-20T06:46:43.639Z,2.42
2019-05-20T06:49:13.901Z,2.45
2019-05-20T06:51:45.304Z,2.47
2019-05-20T06:54:15.598Z,2.65
2019-05-20T06:56:46.303Z,2.58
2019-05-20T06:59:16.999Z,2.00
2019-05-20T07:01:47.238Z,2.35
2019-05-20T07:04:17.461Z,2.20
2019-05-20T07:06:47.866Z,2.10
2019-05-20T07:09:18.129Z,2.02
2019-05-20T07:11:52.790Z,2.02
2019-05-20T07:14:20.308Z,2.00
2019-05-20T07:16:50.551Z,2.20
2019-05-20T07:19:21.857Z,2.20
2019-05-20T07:21:52.127Z,1.77
2019-05-20T07:24:22.424Z,1.80
2019-05-20T07:26:52.690Z,2.12
2019-05-20T07:29:22.925Z,2.40
2019-05-20T07:31:53.194Z,2.27
2019-05-20T07:34:23.435Z,2.35
2019-05-20T07:37:03.144Z,2.40
2019-05-20T07:39:25.626Z,2.37
2019-05-20T07:41:55.842Z,1.98
2019-05-20T07:44:26.097Z,2.52
2019-05-20T07:46:56.349Z,2.37
2019-05-20T07:49:26.601Z,2.35
2019-05-20T07:51:56.848Z,3.40
2019-05-20T07:54:27.094Z,3.15
2019-05-20T07:56:57.322Z,2.47
2019-05-20T07:59:27.588Z,3.02
2019-05-20T08:01:57.846Z,3.00
2019-05-20T08:04:28.162Z,3.05
2019-05-20T08:06:58.484Z,3.10
2019-05-20T08:09:28.788Z,2.92
2019-05-20T08:11:59.066Z,2.87
2019-05-20T08:14:29.318Z,3.15
2019-05-20T08:16:59.582Z,3.58
2019-05-20T08:19:29.851Z,2.90
2019-05-20T08:22:00.102Z,3.22
2019-05-20T08:24:30.351Z,2.83
2019-05-20T08:27:00.574Z,3.22
2019-05-20T08:29:30.831Z,3.52
2019-05-20T08:32:01.079Z,2.72
2019-05-20T08:34:31.544Z,3.12
2019-05-20T08:37:02.143Z,2.92
2019-05-20T08:39:32.391Z,3.10
2019-05-20T08:42:02.637Z,2.40
2019-05-20T08:44:32.981Z,3.02
2019-05-20T08:47:03.340Z,2.77
2019-05-20T08:49:33.639Z,2.70
2019-05-20T08:52:03.954Z,2.80
2019-05-20T08:54:34.199Z,2.60
2019-05-20T08:57:04.481Z,2.67
2019-05-20T08:59:36.042Z,2.92
2019-05-20T09:02:06.316Z,2.30
2019-05-20T09:04:36.572Z,2.05
2019-05-20T09:07:07.862Z,1.87
2019-05-20T09:09:39.250Z,1.95
2019-05-20T09:12:11.262Z,2.20
2019-05-20T09:14:41.500Z,2.12
2019-05-20T09:17:12.795Z,2.00
2019-05-20T09:19:46.738Z,1.85
2019-05-20T09:22:14.977Z,2.20
2019-05-20T09:24:45.280Z,2.30
2019-05-20T09:27:18.438Z,2.17
2019-05-20T09:29:47.550Z,1.90
2019-05-20T09:32:17.830Z,2.00
2019-05-20T09:34:48.113Z,1.90
2019-05-20T09:37:18.332Z,2.08
2019-05-20T09:39:48.742Z,2.33
2019-05-20T09:42:20.147Z,1.90
2019-05-20T09:44:50.395Z,2.27
2019-05-20T09:47:20.632Z,1.90
2019-05-20T09:49:50.894Z,2.02
2019-05-20T09:52:21.199Z,1.80
2019-05-20T09:54:51.461Z,1.95
2019-05-20T09:57:21.689Z,2.27
2019-05-20T09:59:51.966Z,1.85
2019-05-20T10:02:22.202Z,1.75
2019-05-20T10:04:52.479Z,2.00
2019-05-20T10:07:22.720Z,1.75
2019-05-20T10:09:52.980Z,1.90
2019-05-20T10:12:23.221Z,1.75
2019-05-20T10:14:53.484Z,1.65
2019-05-20T10:17:23.700Z,1.50
2019-05-20T10:19:53.976Z,1.57
2019-05-20T10:22:24.207Z,1.40
2019-05-20T10:24:54.477Z,1.30
2019-05-20T10:27:25.787Z,1.47
2019-05-20T10:29:56.072Z,1.20
2019-05-20T10:32:26.379Z,1.25
2019-05-20T10:34:56.643Z,1.40
2019-05-20T10:37:26.887Z,1.30
2019-05-20T10:39:57.161Z,1.32
2019-05-20T10:42:27.465Z,1.17
2019-05-20T10:44:57.733Z,1.10
2019-05-20T10:47:27.972Z,1.10
2019-05-20T10:49:58.233Z,1.10
2019-05-20T10:52:28.469Z,1.17
2019-05-20T10:54:58.743Z,1.10
2019-05-20T10:57:28.974Z,1.00
2019-05-20T10:59:59.259Z,1.12
2019-05-20T11:02:31.344Z,1.00
2019-05-20T11:05:01.732Z,1.20
2019-05-20T11:07:32.043Z,0.95
2019-05-20T11:10:02.308Z,1.00
2019-05-20T11:12:32.549Z,1.10
2019-05-20T11:15:02.945Z,1.02
2019-05-20T11:17:33.266Z,1.00
2019-05-20T11:20:07.600Z,1.10
2019-05-20T11:22:37.836Z,0.90
2019-05-20T11:25:08.825Z,1.00
2019-05-20T11:27:39.051Z,0.90
2019-05-20T11:30:09.463Z,0.78
2019-05-20T11:32:39.701Z,0.90
2019-05-20T11:35:09.963Z,0.90
2019-05-20T11:37:40.204Z,0.85
2019-05-20T11:40:12.436Z,0.80
2019-05-20T11:42:43.079Z,0.80
2019-05-20T11:45:14.923Z,0.80
2019-05-20T11:47:45.239Z,0.80
2019-05-20T11:50:15.630Z,0.70
2019-05-20T11:52:45.898Z,0.80
2019-05-20T11:55:16.160Z,0.90
2019-05-20T11:57:46.401Z,0.93
2019-05-20T12:00:16.742Z,0.78
2019-05-20T12:02:47.038Z,0.90
2019-05-20T12:05:17.590Z,0.80
2019-05-20T12:07:47.797Z,1.00
2019-05-20T12:10:18.058Z,0.90
2019-05-20T12:12:48.299Z,0.82
2019-05-20T12:15:18.576Z,0.80
2019-05-20T12:17:48.803Z,0.80
2019-05-20T12:20:19.068Z,0.90
2019-05-20T12:22:49.303Z,0.75
2019-05-20T12:25:19.580Z,0.90
2019-05-20T12:27:49.811Z,0.80
2019-05-20T12:30:20.786Z,0.88
2019-05-20T12:32:51.061Z,0.80
2019-05-20T12:35:21.344Z,1.00
2019-05-20T12:37:51.574Z,1.00
2019-05-20T12:40:21.829Z,0.80
2019-05-20T12:42:52.067Z,0.80
2019-05-20T12:45:22.405Z,0.88
2019-05-20T12:47:53.016Z,0.80
2019-05-20T12:50:23.305Z,0.80
2019-05-20T12:52:53.570Z,0.80
2019-05-20T12:55:23.831Z,0.95
2019-05-20T12:57:54.158Z,0.80
2019-05-20T13:00:24.424Z,0.70
2019-05-20T13:02:54.650Z,0.72
2019-05-20T13:05:24.938Z,0.90
2019-05-20T13:07:55.259Z,0.70
2019-05-20T13:10:29.789Z,0.80
2019-05-20T13:12:57.459Z,0.90
2019-05-20T13:15:27.750Z,0.80
2019-05-20T13:17:57.971Z,0.93
2019-05-20T13:20:28.243Z,0.90
2019-05-20T13:22:58.480Z,0.90
2019-05-20T13:25:28.737Z,0.80
2019-05-20T13:27:59.001Z,0.90
2019-05-20T13:30:29.332Z,0.98
2019-05-20T13:32:59.576Z,0.80
2019-05-20T13:35:29.839Z,0.90
2019-05-20T13:38:00.148Z,0.85
2019-05-20T13:40:44.969Z,0.90
2019-05-20T13:43:02.341Z,0.60
2019-05-20T13:45:32.600Z,0.82
2019-05-20T13:48:02.825Z,0.70
2019-05-20T13:50:33.082Z,0.80
2019-05-20T13:53:03.343Z,0.95
2019-05-20T13:55:33.568Z,0.72
2019-05-20T13:58:03.910Z,0.80
2019-05-20T14:00:34.143Z,0.98
2019-05-20T14:03:04.480Z,0.98
2019-05-20T14:05:34.713Z,1.00
2019-05-20T14:08:05.153Z,1.30
2019-05-20T14:10:36.619Z,1.50
2019-05-20T14:13:06.880Z,1.35
2019-05-20T14:15:37.117Z,1.50
2019-05-20T14:18:07.375Z,1.50
2019-05-20T14:20:38.797Z,1.40
2019-05-20T14:23:09.052Z,1.52
2019-05-20T14:25:39.297Z,1.55
2019-05-20T14:28:09.600Z,1.60
2019-05-20T14:30:39.833Z,1.87
2019-05-20T14:33:10.133Z,1.60
2019-05-20T14:35:40.455Z,1.70
2019-05-20T14:38:10.698Z,2.02
2019-05-20T14:40:40.972Z,1.77
2019-05-20T14:43:11.281Z,1.92
2019-05-20T14:45:41.800Z,2.25
2019-05-20T14:48:12.059Z,2.27
2019-05-20T14:50:42.279Z,2.90
2019-05-20T14:53:12.612Z,2.90
2019-05-20T14:55:42.947Z,3.00
2019-05-20T14:58:13.187Z,2.83
2019-05-20T15:00:43.431Z,3.12
2019-05-20T15:03:13.665Z,4.00
2019-05-20T15:05:44.002Z,4.03
2019-05-20T15:08:14.435Z,3.90
2019-05-20T15:10:44.797Z,3.40
2019-05-20T15:13:15.055Z,2.40
2019-05-20T15:15:48.404Z,4.10
2019-05-20T15:18:17.264Z,4.92
2019-05-20T15:20:47.575Z,4.25
2019-05-20T15:23:17.881Z,4.28
2019-05-20T15:25:49.223Z,4.62
2019-05-20T15:28:20.668Z,4.78
2019-05-20T15:30:50.949Z,4.47
2019-05-20T15:33:21.264Z,5.12
2019-05-20T15:35:51.767Z,4.83
2019-05-20T15:38:22.964Z,4.17
2019-05-20T15:40:53.243Z,4.58
2019-05-20T15:43:23.566Z,4.08
2019-05-20T15:45:54.306Z,3.52
2019-05-20T15:48:24.556Z,4.22
2019-05-20T15:50:54.878Z,4.37
2019-05-20T15:53:25.118Z,4.45
2019-05-20T15:55:55.380Z,4.17
2019-05-20T15:58:25.596Z,3.95
2019-05-20T16:00:55.857Z,4.03
2019-05-20T16:03:26.145Z,4.05
2019-05-20T16:05:59.724Z,3.85
2019-05-20T16:08:28.356Z,3.40
2019-05-20T16:10:58.659Z,2.92
2019-05-20T16:13:29.069Z,37.53
2019-05-20T16:15:59.405Z,165.70
2019-05-20T16:18:29.751Z,218.55
2019-05-20T16:21:00.131Z,240.37
2019-05-20T16:23:30.402Z,248.38
2019-05-20T16:26:00.677Z,184.80
2019-05-20T16:28:31.035Z,134.15
2019-05-20T16:31:01.324Z,105.67
2019-05-20T16:33:31.580Z,89.05
2019-05-20T16:36:01.860Z,74.67
2019-05-20T16:38:32.230Z,70.03
2019-05-20T16:41:02.567Z,80.72
2019-05-20T16:43:32.891Z,90.87
2019-05-20T16:46:03.183Z,102.07
2019-05-20T16:48:33.427Z,102.53
2019-05-20T16:51:03.784Z,95.40
2019-05-20T16:53:34.035Z,90.38
2019-05-20T16:56:04.380Z,82.35
2019-05-20T16:58:34.691Z,73.20
2019-05-20T17:01:06.130Z,73.25
2019-05-20T17:03:36.374Z,85.07
2019-05-20T17:06:06.691Z,94.87
2019-05-20T17:08:37.105Z,97.78
2019-05-20T17:11:07.434Z,92.42
2019-05-20T17:13:37.694Z,91.63
2019-05-20T17:16:07.976Z,86.20
2019-05-20T17:18:38.219Z,79.40
2019-05-20T17:21:08.510Z,72.45
2019-05-20T17:23:38.771Z,110.37
2019-05-20T17:26:09.064Z,89.32
2019-05-20T17:28:39.301Z,88.70
2019-05-20T17:31:09.650Z,94.72
2019-05-20T17:33:40.084Z,101.62
2019-05-20T17:36:10.390Z,101.75
2019-05-20T17:38:40.700Z,91.02
2019-05-20T17:41:11.055Z,78.28
2019-05-20T17:43:41.304Z,74.22
2019-05-20T17:46:11.604Z,140.57
2019-05-20T17:48:41.926Z,149.05
2019-05-20T17:51:12.207Z,204.72
2019-05-20T17:53:42.465Z,179.55
2019-05-20T17:56:12.869Z,133.75
2019-05-20T17:58:43.262Z,119.05
2019-05-20T18:01:15.889Z,104.43
2019-05-20T18:03:45.506Z,94.60
2019-05-20T18:06:15.771Z,87.47
2019-05-20T18:08:47.675Z,77.65
2019-05-20T18:11:19.334Z,70.78
2019-05-20T18:13:49.762Z,64.10
2019-05-20T18:16:20.152Z,58.28
2019-05-20T18:18:50.388Z,56.00
2019-05-20T18:21:20.652Z,50.28
2019-05-20T18:23:50.934Z,45.38
2019-05-20T18:26:21.258Z,42.75
2019-05-20T18:28:51.509Z,37.60
2019-05-20T18:31:31.979Z,35.50
2019-05-20T18:33:53.781Z,32.73
2019-05-20T18:36:24.302Z,29.45
2019-05-20T18:38:54.578Z,26.33
2019-05-20T18:41:24.831Z,21.57
2019-05-20T18:43:55.121Z,18.48
2019-05-20T18:49:43.499Z,24.57
2019-05-20T18:52:14.851Z,33.88
2019-05-20T18:54:46.689Z,35.05
2019-05-20T18:57:18.681Z,38.98
2019-05-20T18:59:50.218Z,34.27
2019-05-20T19:02:21.753Z,30.68
2019-05-20T19:04:53.233Z,25.85
2019-05-20T19:07:24.549Z,20.60
2019-05-20T19:09:56.009Z,19.02
2019-05-20T19:12:27.452Z,17.35
2019-05-20T19:14:58.953Z,14.90
2019-05-20T19:17:30.644Z,13.88
2019-05-20T19:20:02.158Z,13.55
2019-05-20T19:22:34.691Z,12.00
2019-05-20T19:25:07.041Z,9.75
2019-05-20T19:27:38.679Z,9.73
2019-05-20T19:30:10.040Z,8.58
2019-05-20T19:32:41.621Z,7.85
2019-05-20T19:35:12.964Z,7.17
2019-05-20T19:37:44.390Z,6.05
2019-05-20T19:40:15.716Z,6.03
2019-05-20T19:42:47.190Z,5.53
2019-05-20T19:45:19.676Z,4.58
2019-05-20T19:47:51.069Z,4.58
2019-05-20T19:50:22.464Z,4.60
2019-05-20T19:52:53.831Z,3.70
2019-05-20T19:55:25.584Z,3.90
2019-05-20T19:57:56.884Z,3.67
2019-05-20T20:00:28.456Z,3.40
2019-05-20T20:02:59.966Z,3.05
2019-05-20T20:05:31.345Z,2.50
2019-05-20T20:08:02.772Z,2.80
2019-05-20T20:10:34.132Z,2.35
2019-05-20T20:13:05.517Z,2.30
2019-05-20T20:15:36.829Z,2.50
2019-05-20T20:18:08.205Z,2.20
2019-05-20T20:20:40.578Z,2.30
2019-05-20T20:23:11.926Z,1.87
2019-05-20T20:25:43.230Z,1.80
2019-05-20T20:28:14.596Z,1.52
2019-05-20T20:30:45.908Z,1.75
2019-05-20T20:33:17.341Z,1.75
2019-05-20T20:35:48.656Z,1.40
2019-05-20T20:38:20.262Z,1.50
2019-05-20T20:40:51.578Z,1.30
2019-05-20T20:43:22.906Z,1.32
2019-05-20T20:45:54.214Z,1.30
2019-05-20T20:48:25.623Z,1.27
2019-05-20T20:50:56.931Z,1.27
2019-05-20T20:53:28.456Z,1.15
2019-05-20T20:55:59.790Z,1.22
2019-05-20T20:58:31.110Z,1.30
2019-05-20T21:01:02.419Z,1.07
2019-05-20T21:03:33.767Z,1.20
2019-05-20T21:06:05.079Z,1.10
2019-05-20T21:08:36.393Z,1.05
2019-05-20T21:11:07.713Z,0.90
2019-05-20T21:13:39.080Z,1.20
2019-05-20T21:16:10.372Z,0.90
2019-05-20T21:18:41.797Z,1.10
2019-05-20T21:21:13.139Z,1.30
2019-05-20T21:23:44.469Z,1.10
2019-05-20T21:26:15.792Z,1.12
2019-05-20T21:28:47.096Z,1.00
2019-05-20T21:31:18.408Z,1.10
2019-05-20T21:33:50.702Z,1.20
2019-05-20T21:36:22.209Z,0.95
2019-05-20T21:38:53.569Z,1.20
2019-05-20T21:41:24.866Z,1.00
2019-05-20T21:43:56.212Z,1.20
2019-05-20T21:46:27.522Z,1.10
2019-05-20T21:48:59.015Z,18.37
2019-05-20T21:51:30.336Z,80.67
2019-05-20T21:54:01.679Z,76.05
2019-05-20T21:56:33.012Z,128.75
2019-05-20T21:59:04.426Z,115.05
2019-05-20T22:01:35.762Z,116.35
2019-05-20T22:04:07.129Z,87.12
2019-05-20T22:06:38.529Z,73.42
2019-05-20T22:09:09.850Z,57.45
2019-05-20T22:11:41.324Z,44.58
2019-05-20T22:14:12.842Z,38.63
2019-05-20T22:16:44.261Z,38.58
2019-05-20T22:19:15.652Z,34.70
2019-05-20T22:21:53.280Z,29.60
2019-05-20T22:24:24.592Z,26.27
2019-05-20T22:26:55.938Z,21.62
2019-05-20T22:29:27.261Z,20.77
2019-05-20T22:31:58.706Z,17.55
2019-05-20T22:34:30.056Z,15.43
2019-05-20T22:37:01.404Z,13.03
2019-05-20T22:39:32.786Z,12.47
2019-05-20T22:42:04.268Z,11.12
2019-05-20T22:44:35.578Z,9.30
2019-05-20T22:47:06.917Z,9.00
2019-05-20T22:49:38.301Z,8.23
2019-05-20T22:52:09.643Z,6.62
2019-05-20T22:54:40.946Z,6.33
2019-05-20T22:57:12.312Z,5.10
2019-05-20T22:59:43.607Z,4.70
2019-05-20T23:02:14.911Z,4.55
2019-05-20T23:04:46.231Z,4.95
2019-05-20T23:07:17.523Z,5.20
2019-05-20T23:09:49.209Z,3.77
2019-05-20T23:12:20.524Z,3.12
2019-05-20T23:14:52.178Z,3.55
2019-05-20T23:17:23.543Z,2.80
2019-05-20T23:19:54.829Z,3.10
2019-05-20T23:22:26.179Z,3.10
2019-05-20T23:24:57.508Z,2.50
2019-05-20T23:27:28.823Z,2.30
2019-05-20T23:30:00.157Z,2.08
2019-05-20T23:32:31.595Z,1.77
2019-05-20T23:35:02.952Z,1.70
2019-05-20T23:37:34.261Z,1.57
2019-05-20T23:40:06.030Z,1.60
2019-05-20T23:42:37.351Z,1.65
2019-05-20T23:45:09.169Z,1.30
2019-05-20T23:47:40.485Z,1.50
2019-05-20T23:50:11.776Z,1.30
2019-05-20T23:52:43.079Z,1.30
2019-05-20T23:55:14.581Z,1.20
2019-05-20T23:57:45.900Z,1.30
